createdAt,value
2018-07-27T00:00:23.754Z,1000.54
2018-07-27T00:01:04.315Z,1000.54
2018-07-27T00:01:44.789Z,1000.56
2018-07-27T00:02:25.267Z,1000.54
2018-07-27T00:03:05.785Z,1000.57
2018-07-27T00:03:46.271Z,1000.52
2018-07-27T00:04:26.752Z,1000.6
2018-07-27T00:05:07.328Z,1000.55
2018-07-27T00:05:47.749Z,1000.55
2018-07-27T00:06:28.221Z,1000.55
2018-07-27T00:07:08.755Z,1000.53
2018-07-27T00:07:49.281Z,1000.53
2018-07-27T00:08:29.755Z,1000.52
2018-07-27T00:09:10.262Z,1000.47
2018-07-27T00:09:50.833Z,1000.47
2018-07-27T00:10:31.326Z,1000.5
2018-07-27T00:11:11.786Z,1000.48
2018-07-27T00:11:52.362Z,1000.46
2018-07-27T00:12:32.808Z,1000.45
2018-07-27T00:13:13.299Z,1000.45
2018-07-27T00:13:53.778Z,1000.41
2018-07-27T00:14:34.291Z,1000.45
2018-07-27T00:15:14.761Z,1000.41
2018-07-27T00:15:55.279Z,1000.39
2018-07-27T00:16:35.795Z,1000.41
2018-07-27T00:17:16.300Z,1000.34
2018-07-27T00:17:56.735Z,1000.41
2018-07-27T00:18:37.252Z,1000.41
2018-07-27T00:19:17.761Z,1000.4
2018-07-27T00:19:58.243Z,1000.41
2018-07-27T00:20:38.757Z,1000.42
2018-07-27T00:21:19.217Z,1000.41
2018-07-27T00:21:59.741Z,1000.39
2018-07-27T00:22:40.281Z,1000.39
2018-07-27T00:23:20.803Z,1000.36
2018-07-27T00:24:01.258Z,1000.38
2018-07-27T00:24:41.732Z,1000.35
2018-07-27T00:25:22.281Z,1000.36
2018-07-27T00:26:02.746Z,1000.36
2018-07-27T00:26:43.251Z,1000.35
2018-07-27T00:27:23.733Z,1000.32
2018-07-27T00:28:04.268Z,1000.34
2018-07-27T00:28:44.722Z,1000.34
2018-07-27T00:29:25.213Z,1000.3
2018-07-27T00:30:05.719Z,1000.32
2018-07-27T00:30:46.224Z,1000.35
2018-07-27T00:31:26.776Z,1000.32
2018-07-27T00:32:07.238Z,1000.38
2018-07-27T00:32:47.765Z,1000.36
2018-07-27T00:33:28.267Z,1000.36
2018-07-27T00:34:08.711Z,1000.36
2018-07-27T00:34:49.268Z,1000.38
2018-07-27T00:35:29.738Z,1000.4
2018-07-27T00:36:10.250Z,1000.39
2018-07-27T00:36:50.728Z,1000.4
2018-07-27T00:37:31.219Z,1000.42
2018-07-27T00:38:11.769Z,1000.45
2018-07-27T00:38:52.258Z,1000.45
2018-07-27T00:39:32.785Z,1000.43
2018-07-27T00:40:13.267Z,1000.47
2018-07-27T00:40:53.734Z,1000.52
2018-07-27T00:41:34.260Z,1000.51
2018-07-27T00:42:14.743Z,1000.47
2018-07-27T00:42:55.268Z,1000.48
2018-07-27T00:43:35.742Z,1000.48
2018-07-27T00:44:16.255Z,1000.48
2018-07-27T00:44:56.722Z,1000.52
2018-07-27T00:45:37.246Z,1000.52
2018-07-27T00:46:17.745Z,1000.54
2018-07-27T00:46:58.257Z,1000.53
2018-07-27T00:47:38.783Z,1000.56
2018-07-27T00:48:19.269Z,1000.56
2018-07-27T00:48:59.812Z,1000.61
2018-07-27T00:49:40.318Z,1000.58
2018-07-27T00:50:20.805Z,1000.58
2018-07-27T00:51:01.273Z,1000.55
2018-07-27T00:51:41.769Z,1000.59
2018-07-27T00:52:22.315Z,1000.56
2018-07-27T00:53:02.821Z,1000.6
2018-07-27T00:53:43.293Z,1000.62
2018-07-27T00:54:23.823Z,1000.59
2018-07-27T00:55:04.307Z,1000.59
2018-07-27T00:55:44.812Z,1000.55
2018-07-27T00:56:25.283Z,1000.57
2018-07-27T00:57:05.785Z,1000.53
2018-07-27T00:57:46.261Z,1000.48
2018-07-27T00:58:26.800Z,1000.53
2018-07-27T00:59:07.281Z,1000.51
2018-07-27T00:59:47.812Z,1000.54
2018-07-27T01:00:28.269Z,1000.59
2018-07-27T01:01:08.796Z,1000.57
2018-07-27T01:01:49.284Z,1000.5
2018-07-27T01:02:29.769Z,1000.48
2018-07-27T01:03:10.279Z,1000.56
2018-07-27T01:03:50.798Z,1000.55
2018-07-27T01:04:31.325Z,1000.48
2018-07-27T01:05:11.763Z,1000.49
2018-07-27T01:05:52.267Z,1000.47
2018-07-27T01:10:11.000Z,1000.5
2018-07-27T01:10:51.529Z,1000.48
2018-07-27T01:11:31.995Z,1000.45
2018-07-27T01:12:13.734Z,1000.47
2018-07-27T01:12:54.016Z,1000.46
2018-07-27T01:13:34.612Z,1000.47
2018-07-27T01:14:15.586Z,1000.48
2018-07-27T01:14:57.994Z,1000.42
2018-07-27T01:15:39.341Z,1000.45
2018-07-27T01:16:20.469Z,1000.48
2018-07-27T01:17:01.130Z,1000.49
2018-07-27T01:17:42.481Z,1000.48
2018-07-27T01:18:23.354Z,1000.46
2018-07-27T01:19:03.834Z,1000.47
2018-07-27T01:19:44.236Z,1000.44
2018-07-27T01:20:24.753Z,1000.46
2018-07-27T01:21:05.298Z,1000.45
2018-07-27T01:21:45.765Z,1000.48
2018-07-27T01:22:26.245Z,1000.44
2018-07-27T01:23:06.706Z,1000.48
2018-07-27T01:23:47.224Z,1000.45
2018-07-27T01:24:27.697Z,1000.47
2018-07-27T01:25:08.238Z,1000.49
2018-07-27T01:25:48.744Z,1000.47
2018-07-27T01:26:29.157Z,1000.44
2018-07-27T01:27:09.685Z,1000.42
2018-07-27T01:27:50.164Z,1000.48
2018-07-27T01:28:30.701Z,1000.44
2018-07-27T01:29:11.127Z,1000.49
2018-07-27T01:29:51.651Z,1000.47
2018-07-27T01:30:32.124Z,1000.45
2018-07-27T01:31:12.703Z,1000.43
2018-07-27T01:31:53.180Z,1000.42
2018-07-27T01:32:33.672Z,1000.43
2018-07-27T01:33:14.153Z,1000.44
2018-07-27T01:33:54.661Z,1000.41
2018-07-27T01:34:35.126Z,1000.38
2018-07-27T01:35:15.647Z,1000.39
2018-07-27T01:35:56.109Z,1000.42
2018-07-27T01:36:36.816Z,1000.43
2018-07-27T01:37:17.259Z,1000.43
2018-07-27T01:37:57.733Z,1000.37
2018-07-27T01:38:38.224Z,1000.37
2018-07-27T01:39:18.740Z,1000.41
2018-07-27T01:39:59.219Z,1000.39
2018-07-27T01:40:39.759Z,1000.37
2018-07-27T01:41:20.265Z,1000.39
2018-07-27T01:42:00.779Z,1000.36
2018-07-27T01:42:41.257Z,1000.38
2018-07-27T01:43:21.816Z,1000.37
2018-07-27T01:44:02.307Z,1000.36
2018-07-27T01:44:42.767Z,1000.34
2018-07-27T01:45:23.278Z,1000.33
2018-07-27T01:46:03.746Z,1000.34
2018-07-27T01:46:44.212Z,1000.3
2018-07-27T01:47:24.763Z,1000.27
2018-07-27T01:48:05.246Z,1000.32
2018-07-27T01:48:45.748Z,1000.29
2018-07-27T01:49:26.252Z,1000.32
2018-07-27T01:50:06.755Z,1000.29
2018-07-27T01:50:47.238Z,1000.31
2018-07-27T01:51:27.721Z,1000.34
2018-07-27T01:52:08.203Z,1000.33
2018-07-27T01:52:48.677Z,1000.31
2018-07-27T01:53:29.202Z,1000.34
2018-07-27T01:54:09.720Z,1000.35
2018-07-27T01:54:50.219Z,1000.34
2018-07-27T01:55:30.683Z,1000.3
2018-07-27T01:56:11.197Z,1000.32
2018-07-27T01:56:51.669Z,1000.3
2018-07-27T01:57:32.217Z,1000.34
2018-07-27T01:58:12.656Z,1000.31
2018-07-27T01:58:53.124Z,1000.29
2018-07-27T01:59:33.631Z,1000.31
2018-07-27T02:00:14.109Z,1000.33
2018-07-27T02:00:54.602Z,1000.28
2018-07-27T02:01:35.082Z,1000.28
2018-07-27T02:02:15.632Z,1000.26
2018-07-27T02:02:56.103Z,1000.29
2018-07-27T02:03:36.585Z,1000.28
2018-07-27T02:04:17.073Z,1000.26
2018-07-27T02:04:57.608Z,1000.26
2018-07-27T02:05:38.088Z,1000.26
2018-07-27T02:06:18.611Z,1000.25
2018-07-27T02:06:59.125Z,1000.26
2018-07-27T02:07:39.612Z,1000.27
2018-07-27T02:08:20.145Z,1000.28
2018-07-27T02:09:00.673Z,1000.24
2018-07-27T02:09:41.118Z,1000.25
2018-07-27T02:10:21.676Z,1000.24
2018-07-27T02:11:02.156Z,1000.22
2018-07-27T02:11:42.634Z,1000.21
2018-07-27T02:12:23.146Z,1000.22
2018-07-27T02:13:03.706Z,1000.24
2018-07-27T02:13:44.102Z,1000.22
2018-07-27T02:14:24.632Z,1000.21
2018-07-27T02:15:05.093Z,1000.19
2018-07-27T02:15:45.580Z,1000.21
2018-07-27T02:16:26.091Z,1000.23
2018-07-27T02:17:06.550Z,1000.22
2018-07-27T02:17:47.027Z,1000.2
2018-07-27T02:18:27.562Z,1000.19
2018-07-27T02:19:08.022Z,1000.22
2018-07-27T02:19:48.519Z,1000.16
2018-07-27T02:20:29.009Z,1000.23
2018-07-27T02:21:09.473Z,1000.21
2018-07-27T02:21:49.949Z,1000.23
2018-07-27T02:22:30.512Z,1000.22
2018-07-27T02:23:10.984Z,1000.22
2018-07-27T02:23:51.455Z,1000.18
2018-07-27T02:24:31.939Z,1000.2
2018-07-27T02:25:12.495Z,1000.19
2018-07-27T02:25:52.957Z,1000.17
2018-07-27T02:26:33.461Z,1000.18
2018-07-27T02:27:13.905Z,1000.15
2018-07-27T02:27:54.434Z,1000.16
2018-07-27T02:28:34.908Z,1000.16
2018-07-27T02:29:15.391Z,1000.14
2018-07-27T02:29:55.887Z,1000.16
2018-07-27T02:30:36.361Z,1000.17
2018-07-27T02:31:16.897Z,1000.17
2018-07-27T02:31:57.346Z,1000.15
2018-07-27T02:32:37.871Z,1000.2
2018-07-27T02:33:18.384Z,1000.2
2018-07-27T02:33:58.895Z,1000.21
2018-07-27T02:34:39.414Z,1000.18
2018-07-27T02:35:19.928Z,1000.16
2018-07-27T02:36:00.390Z,1000.21
2018-07-27T02:36:41.008Z,1000.17
2018-07-27T02:37:21.489Z,1000.15
2018-07-27T02:38:02.002Z,1000.14
2018-07-27T02:38:42.489Z,1000.16
2018-07-27T02:39:22.948Z,1000.14
2018-07-27T02:40:03.530Z,1000.19
2018-07-27T02:40:43.958Z,1000.16
2018-07-27T02:41:24.461Z,1000.11
2018-07-27T02:42:04.930Z,1000.13
2018-07-27T02:42:45.429Z,1000.14
2018-07-27T02:43:25.912Z,1000.14
2018-07-27T02:44:07.311Z,1000.14
2018-07-27T02:44:47.815Z,1000.15
2018-07-27T02:45:28.248Z,1000.15
2018-07-27T02:46:08.792Z,1000.13
2018-07-27T02:46:49.250Z,1000.12
2018-07-27T02:47:29.744Z,1000.14
2018-07-27T02:48:10.282Z,1000.12
2018-07-27T02:48:50.888Z,1000.12
2018-07-27T02:49:31.283Z,1000.09
2018-07-27T02:50:11.766Z,1000.11
2018-07-27T02:50:52.255Z,1000.09
2018-07-27T02:51:32.799Z,1000.06
2018-07-27T02:52:13.308Z,1000.08
2018-07-27T02:52:53.765Z,1000.05
2018-07-27T02:53:34.204Z,1000.06
2018-07-27T02:54:14.686Z,1000.04
2018-07-27T02:54:55.230Z,1000.04
2018-07-27T02:55:35.771Z,1000.05
2018-07-27T02:56:16.307Z,1000.01
2018-07-27T02:56:56.787Z,1000.01
2018-07-27T02:57:37.289Z,1000.01
2018-07-27T02:58:17.778Z,999.99
2018-07-27T02:58:58.243Z,999.99
2018-07-27T02:59:38.742Z,999.98
2018-07-27T03:00:19.245Z,999.98
2018-07-27T03:00:59.718Z,1000
2018-07-27T03:01:40.225Z,999.94
2018-07-27T03:02:20.736Z,999.95
2018-07-27T03:03:01.206Z,999.95
2018-07-27T03:03:41.697Z,999.96
2018-07-27T03:04:22.195Z,999.97
2018-07-27T03:05:02.684Z,1000
2018-07-27T03:05:43.194Z,999.98
2018-07-27T03:06:23.732Z,999.98
2018-07-27T03:07:04.204Z,999.98
2018-07-27T03:07:44.702Z,999.96
2018-07-27T03:08:25.200Z,999.96
2018-07-27T03:09:05.713Z,999.93
2018-07-27T03:09:46.294Z,999.95
2018-07-27T03:10:26.721Z,999.95
2018-07-27T03:11:07.220Z,999.93
2018-07-27T03:11:47.714Z,999.94
2018-07-27T03:12:28.220Z,999.91
2018-07-27T03:13:08.759Z,999.96
2018-07-27T03:13:49.173Z,999.92
2018-07-27T03:14:29.714Z,999.91
2018-07-27T03:15:10.227Z,999.93
2018-07-27T03:15:50.699Z,999.92
2018-07-27T03:16:31.225Z,999.97
2018-07-27T03:17:11.749Z,999.92
2018-07-27T03:17:52.234Z,999.94
2018-07-27T03:18:32.745Z,999.95
2018-07-27T03:19:13.217Z,999.97
2018-07-27T03:19:53.737Z,999.94
2018-07-27T03:20:34.196Z,999.98
2018-07-27T03:21:14.715Z,999.97
2018-07-27T03:21:55.233Z,999.93
2018-07-27T03:22:35.741Z,999.97
2018-07-27T03:23:16.200Z,999.97
2018-07-27T03:23:56.715Z,999.97
2018-07-27T03:24:37.207Z,1000
2018-07-27T03:25:17.756Z,1000.01
2018-07-27T03:25:58.317Z,999.98
2018-07-27T03:26:38.842Z,999.93
2018-07-27T03:27:19.307Z,999.97
2018-07-27T03:27:59.816Z,999.92
2018-07-27T03:28:40.336Z,999.94
2018-07-27T03:29:20.784Z,999.97
2018-07-27T03:31:34.078Z,999.96
2018-07-27T03:32:14.593Z,999.98
2018-07-27T03:32:55.118Z,999.98
2018-07-27T03:33:35.626Z,999.96
2018-07-27T03:34:16.159Z,999.97
2018-07-27T03:34:56.659Z,999.97
2018-07-27T03:35:37.168Z,999.91
2018-07-27T03:36:17.586Z,999.92
2018-07-27T03:36:58.146Z,999.95
2018-07-27T03:37:38.620Z,999.91
2018-07-27T03:38:19.152Z,999.87
2018-07-27T03:38:59.720Z,999.91
2018-07-27T03:39:40.111Z,999.89
2018-07-27T03:40:20.622Z,999.9
2018-07-27T03:41:01.062Z,999.92
2018-07-27T03:41:41.610Z,999.9
2018-07-27T03:42:22.129Z,999.89
2018-07-27T03:43:02.606Z,999.91
2018-07-27T03:43:43.128Z,999.94
2018-07-27T03:44:23.590Z,999.91
2018-07-27T03:45:04.091Z,999.92
2018-07-27T03:45:44.589Z,999.9
2018-07-27T03:46:25.068Z,999.91
2018-07-27T03:47:05.616Z,999.84
2018-07-27T03:47:46.120Z,999.89
2018-07-27T03:48:26.646Z,999.89
2018-07-27T03:49:07.143Z,999.89
2018-07-27T03:49:47.629Z,999.89
2018-07-27T03:50:28.160Z,999.88
2018-07-27T03:51:08.675Z,999.9
2018-07-27T03:51:49.173Z,999.87
2018-07-27T03:52:29.678Z,999.85
2018-07-27T03:53:10.168Z,999.9
2018-07-27T03:53:50.678Z,999.91
2018-07-27T03:54:31.190Z,999.89
2018-07-27T03:55:11.647Z,999.9
2018-07-27T03:55:52.140Z,999.93
2018-07-27T03:56:32.684Z,999.91
2018-07-27T03:57:13.160Z,999.93
2018-07-27T03:57:53.685Z,999.95
2018-07-27T03:58:34.170Z,999.91
2018-07-27T03:59:14.644Z,999.92
2018-07-27T03:59:55.135Z,999.89
2018-07-27T04:00:35.681Z,999.85
2018-07-27T04:01:16.119Z,999.85
2018-07-27T04:01:56.629Z,999.87
2018-07-27T04:02:37.124Z,999.88
2018-07-27T04:03:17.595Z,999.89
2018-07-27T04:03:58.072Z,999.85
2018-07-27T04:04:38.583Z,999.87
2018-07-27T04:05:19.129Z,999.83
2018-07-27T04:05:59.594Z,999.84
2018-07-27T04:06:40.098Z,999.84
2018-07-27T04:07:20.639Z,999.86
2018-07-27T04:08:01.092Z,999.85
2018-07-27T04:08:41.602Z,999.86
2018-07-27T04:09:22.079Z,999.82
2018-07-27T04:10:02.577Z,999.84
2018-07-27T04:10:43.084Z,999.88
2018-07-27T04:11:23.524Z,999.83
2018-07-27T04:12:04.020Z,999.88
2018-07-27T04:12:44.534Z,999.89
2018-07-27T04:13:25.046Z,999.89
2018-07-27T04:14:05.521Z,999.88
2018-07-27T04:14:46.047Z,999.89
2018-07-27T04:15:26.574Z,999.88
2018-07-27T04:16:07.036Z,999.86
2018-07-27T04:16:47.526Z,999.85
2018-07-27T04:17:27.981Z,999.86
2018-07-27T04:18:08.484Z,999.86
2018-07-27T04:18:48.978Z,999.88
2018-07-27T04:19:29.485Z,999.91
2018-07-27T04:20:09.957Z,999.88
2018-07-27T04:20:50.450Z,999.85
2018-07-27T04:21:30.998Z,999.85
2018-07-27T04:22:11.482Z,999.87
2018-07-27T04:22:51.928Z,999.88
2018-07-27T04:23:32.449Z,999.88
2018-07-27T04:24:12.925Z,999.84
2018-07-27T04:24:53.416Z,999.88
2018-07-27T04:25:33.897Z,999.91
2018-07-27T04:26:14.469Z,999.9
2018-07-27T04:26:54.915Z,999.89
2018-07-27T04:27:35.404Z,999.88
2018-07-27T04:28:15.870Z,999.89
2018-07-27T04:28:56.307Z,999.87
2018-07-27T04:29:36.876Z,999.93
2018-07-27T04:30:17.331Z,999.95
2018-07-27T04:30:57.866Z,999.93
2018-07-27T04:31:38.297Z,999.93
2018-07-27T04:32:18.794Z,999.93
2018-07-27T04:32:59.322Z,999.95
2018-07-27T04:33:39.837Z,999.9
2018-07-27T04:34:20.274Z,999.92
2018-07-27T04:35:00.778Z,999.93
2018-07-27T04:35:41.291Z,999.95
2018-07-27T04:36:21.721Z,999.92
2018-07-27T04:37:02.247Z,999.96
2018-07-27T04:37:42.751Z,999.94
2018-07-27T04:38:23.261Z,999.95
2018-07-27T04:39:03.766Z,999.99
2018-07-27T04:39:44.282Z,999.99
2018-07-27T04:40:24.782Z,1000.01
2018-07-27T04:41:05.284Z,1000.01
2018-07-27T04:41:45.771Z,1000.02
2018-07-27T04:42:26.277Z,999.99
2018-07-27T04:43:06.782Z,999.98
2018-07-27T04:43:47.284Z,1000
2018-07-27T04:44:27.726Z,999.97
2018-07-27T04:45:08.217Z,999.96
2018-07-27T04:45:48.728Z,999.94
2018-07-27T04:46:29.195Z,999.98
2018-07-27T04:47:09.691Z,999.93
2018-07-27T04:47:50.169Z,999.91
2018-07-27T04:48:30.655Z,999.94
2018-07-27T04:49:11.214Z,999.91
2018-07-27T04:49:51.715Z,999.94
2018-07-27T04:50:32.186Z,999.95
2018-07-27T04:51:12.699Z,999.93
2018-07-27T04:51:53.141Z,999.96
2018-07-27T04:52:33.645Z,999.93
2018-07-27T04:53:14.169Z,1000.01
2018-07-27T04:53:54.667Z,999.95
2018-07-27T04:54:35.170Z,999.94
2018-07-27T04:55:15.650Z,999.95
2018-07-27T04:55:56.153Z,999.95
2018-07-27T04:56:36.810Z,999.93
2018-07-27T04:57:17.134Z,999.94
2018-07-27T04:57:57.661Z,999.92
2018-07-27T04:58:38.133Z,999.94
2018-07-27T04:59:18.668Z,999.95
2018-07-27T04:59:59.173Z,999.93
2018-07-27T05:00:39.644Z,999.93
2018-07-27T05:01:20.157Z,999.93
2018-07-27T05:02:00.670Z,999.93
2018-07-27T05:02:41.148Z,999.95
2018-07-27T05:03:21.651Z,999.94
2018-07-27T05:04:02.147Z,999.96
2018-07-27T05:04:42.652Z,999.98
2018-07-27T05:05:23.126Z,999.93
2018-07-27T05:06:03.614Z,999.94
2018-07-27T05:06:44.114Z,999.99
2018-07-27T05:07:24.597Z,1000.02
2018-07-27T05:08:05.087Z,999.98
2018-07-27T05:08:45.608Z,1000.04
2018-07-27T05:09:26.053Z,1000.01
2018-07-27T05:10:06.551Z,1000.03
2018-07-27T05:10:47.048Z,1000.07
2018-07-27T05:11:27.586Z,1000.09
2018-07-27T05:12:08.077Z,1000.07
2018-07-27T05:12:48.559Z,1000.08
2018-07-27T05:13:29.052Z,1000.1
2018-07-27T05:14:09.562Z,1000.1
2018-07-27T05:14:50.097Z,1000.06
2018-07-27T05:15:30.579Z,1000.13
2018-07-27T05:16:11.074Z,1000.1
2018-07-27T05:16:51.603Z,1000.12
2018-07-27T05:17:32.087Z,1000.14
2018-07-27T05:18:12.648Z,1000.12
2018-07-27T05:18:53.025Z,1000.1
2018-07-27T05:19:33.534Z,1000.08
2018-07-27T05:20:14.042Z,1000.11
2018-07-27T05:20:54.544Z,1000.15
2018-07-27T05:21:35.050Z,1000.15
2018-07-27T05:22:15.567Z,1000.14
2018-07-27T05:22:56.141Z,1000.16
2018-07-27T05:23:36.616Z,1000.2
2018-07-27T05:24:17.146Z,1000.2
2018-07-27T05:24:57.777Z,1000.15
2018-07-27T05:25:38.467Z,1000.15
2018-07-27T05:26:19.091Z,1000.2
2018-07-27T05:26:59.501Z,1000.17
2018-07-27T05:27:40.216Z,1000.18
2018-07-27T05:28:20.814Z,1000.14
2018-07-27T05:29:01.220Z,1000.14
2018-07-27T05:29:41.776Z,1000.14
2018-07-27T05:30:22.261Z,1000.15
2018-07-27T05:31:02.711Z,1000.17
2018-07-27T05:31:43.295Z,1000.15
2018-07-27T05:32:23.785Z,1000.16
2018-07-27T05:33:04.212Z,1000.18
2018-07-27T05:33:44.726Z,1000.17
2018-07-27T05:34:25.225Z,1000.15
2018-07-27T05:35:05.705Z,1000.18
2018-07-27T05:35:46.222Z,1000.18
2018-07-27T05:36:26.751Z,1000.17
2018-07-27T05:37:07.180Z,1000.19
2018-07-27T05:37:47.703Z,1000.25
2018-07-27T05:38:28.214Z,1000.21
2018-07-27T05:39:08.719Z,1000.2
2018-07-27T05:39:49.189Z,1000.2
2018-07-27T05:40:29.652Z,1000.23
2018-07-27T05:41:10.145Z,1000.24
2018-07-27T05:41:50.628Z,1000.23
2018-07-27T05:42:31.143Z,1000.24
2018-07-27T05:43:11.647Z,1000.26
2018-07-27T05:43:52.192Z,1000.27
2018-07-27T05:44:32.713Z,1000.24
2018-07-27T05:45:13.191Z,1000.24
2018-07-27T05:45:53.690Z,1000.22
2018-07-27T05:46:34.180Z,1000.31
2018-07-27T05:47:14.746Z,1000.3
2018-07-27T05:47:55.351Z,1000.25
2018-07-27T05:48:35.723Z,1000.28
2018-07-27T05:49:16.247Z,1000.29
2018-07-27T05:49:56.720Z,1000.32
2018-07-27T05:50:37.199Z,1000.29
2018-07-27T05:51:17.714Z,1000.26
2018-07-27T05:51:58.193Z,1000.27
2018-07-27T05:52:38.695Z,1000.28
2018-07-27T05:53:19.162Z,1000.26
2018-07-27T05:53:59.701Z,1000.3
2018-07-27T05:54:40.235Z,1000.35
2018-07-27T05:55:20.733Z,1000.33
2018-07-27T05:56:01.277Z,1000.37
2018-07-27T05:56:41.699Z,1000.35
2018-07-27T05:57:22.232Z,1000.35
2018-07-27T05:58:02.725Z,1000.36
2018-07-27T05:58:43.258Z,1000.37
2018-07-27T05:59:23.740Z,1000.38
2018-07-27T06:00:04.200Z,1000.31
2018-07-27T06:00:44.768Z,1000.41
2018-07-27T06:01:25.247Z,1000.35
2018-07-27T06:02:05.726Z,1000.4
2018-07-27T06:02:46.347Z,1000.4
2018-07-27T06:03:26.765Z,1000.37
2018-07-27T06:04:07.217Z,1000.39
2018-07-27T06:04:47.696Z,1000.41
2018-07-27T06:05:28.225Z,1000.4
2018-07-27T06:06:08.710Z,1000.36
2018-07-27T06:06:49.232Z,1000.38
2018-07-27T06:07:29.953Z,1000.35
2018-07-27T06:08:10.365Z,1000.36
2018-07-27T06:08:50.958Z,1000.37
2018-07-27T06:09:31.380Z,1000.39
2018-07-27T06:10:11.892Z,1000.39
2018-07-27T06:10:52.436Z,1000.36
2018-07-27T06:11:32.918Z,1000.36
2018-07-27T06:12:13.398Z,1000.41
2018-07-27T06:12:53.835Z,1000.36
2018-07-27T06:13:34.310Z,1000.38
2018-07-27T06:14:14.855Z,1000.39
2018-07-27T06:14:55.345Z,1000.4
2018-07-27T06:15:35.928Z,1000.38
2018-07-27T06:16:16.399Z,1000.42
2018-07-27T06:16:56.881Z,1000.4
2018-07-27T06:17:37.427Z,1000.43
2018-07-27T06:18:17.944Z,1000.45
2018-07-27T06:18:58.397Z,1000.43
2018-07-27T06:19:38.927Z,1000.41
2018-07-27T06:20:19.447Z,1000.43
2018-07-27T06:20:59.989Z,1000.42
2018-07-27T06:21:40.425Z,1000.44
2018-07-27T06:22:20.899Z,1000.39
2018-07-27T06:23:01.437Z,1000.43
2018-07-27T06:23:41.980Z,1000.37
2018-07-27T06:24:22.519Z,1000.39
2018-07-27T06:25:02.935Z,1000.4
2018-07-27T06:25:43.564Z,1000.41
2018-07-27T06:26:23.938Z,1000.4
2018-07-27T06:27:04.462Z,1000.42
2018-07-27T06:27:45.045Z,1000.43
2018-07-27T06:28:25.487Z,1000.47
2018-07-27T06:29:06.026Z,1000.45
2018-07-27T06:29:46.520Z,1000.42
2018-07-27T06:30:27.054Z,1000.41
2018-07-27T06:31:07.589Z,1000.45
2018-07-27T06:31:48.080Z,1000.44
2018-07-27T06:32:28.592Z,1000.45
2018-07-27T06:33:09.021Z,1000.44
2018-07-27T06:33:50.342Z,1000.46
2018-07-27T06:34:30.982Z,1000.44
2018-07-27T06:35:11.494Z,1000.45
2018-07-27T06:35:52.027Z,1000.48
2018-07-27T06:36:32.436Z,1000.48
2018-07-27T06:37:13.032Z,1000.49
2018-07-27T06:37:53.567Z,1000.46
2018-07-27T06:38:33.953Z,1000.43
2018-07-27T06:39:14.536Z,1000.45
2018-07-27T06:39:54.989Z,1000.44
2018-07-27T06:40:35.503Z,1000.44
2018-07-27T06:41:16.003Z,1000.4
2018-07-27T06:41:56.684Z,1000.38
2018-07-27T06:42:37.037Z,1000.43
2018-07-27T06:43:17.550Z,1000.42
2018-07-27T06:43:58.242Z,1000.41
2018-07-27T06:44:38.862Z,1000.42
2018-07-27T06:45:19.393Z,1000.41
2018-07-27T06:45:59.920Z,1000.39
2018-07-27T06:46:40.400Z,1000.4
2018-07-27T06:47:20.880Z,1000.41
2018-07-27T06:48:01.398Z,1000.39
2018-07-27T06:48:42.089Z,1000.4
2018-07-27T06:49:22.523Z,1000.41
2018-07-27T06:50:03.024Z,1000.41
2018-07-27T06:50:43.495Z,1000.42
2018-07-27T06:51:24.054Z,1000.43
2018-07-27T06:52:04.547Z,1000.43
2018-07-27T06:52:45.215Z,1000.43
2018-07-27T06:53:25.666Z,1000.46
2018-07-27T06:54:06.201Z,1000.45
2018-07-27T06:54:47.508Z,1000.46
2018-07-27T06:55:27.945Z,1000.46
2018-07-27T06:56:08.538Z,1000.45
2018-07-27T06:56:49.033Z,1000.45
2018-07-27T06:57:29.604Z,1000.47
2018-07-27T06:58:10.314Z,1000.44
2018-07-27T06:58:50.822Z,1000.44
2018-07-27T06:59:31.276Z,1000.49
2018-07-27T07:00:11.834Z,1000.47
2018-07-27T07:00:52.388Z,1000.48
2018-07-27T07:01:32.772Z,1000.49
2018-07-27T07:02:13.517Z,1000.51
2018-07-27T07:02:53.938Z,1000.52
2018-07-27T07:03:34.512Z,1000.49
2018-07-27T07:04:14.953Z,1000.48
2018-07-27T07:04:55.452Z,1000.52
2018-07-27T07:05:35.919Z,1000.54
2018-07-27T07:06:16.444Z,1000.5
2018-07-27T07:06:56.955Z,1000.53
2018-07-27T07:07:37.467Z,1000.51
2018-07-27T07:08:17.918Z,1000.51
2018-07-27T07:08:58.464Z,1000.51
2018-07-27T07:09:38.893Z,1000.52
2018-07-27T07:10:19.427Z,1000.55
2018-07-27T07:10:59.993Z,1000.57
2018-07-27T07:11:40.477Z,1000.54
2018-07-27T07:12:21.046Z,1000.55
2018-07-27T07:13:01.513Z,1000.57
2018-07-27T07:13:42.067Z,1000.54
2018-07-27T07:14:22.527Z,1000.57
2018-07-27T07:15:03.081Z,1000.53
2018-07-27T07:15:43.796Z,1000.54
2018-07-27T07:16:24.394Z,1000.55
2018-07-27T07:17:04.911Z,1000.54
2018-07-27T07:17:45.420Z,1000.53
2018-07-27T07:18:25.898Z,1000.5
2018-07-27T07:19:06.465Z,1000.49
2018-07-27T07:19:47.159Z,1000.51
2018-07-27T07:20:27.641Z,1000.54
2018-07-27T07:21:08.162Z,1000.5
2018-07-27T07:21:48.931Z,1000.56
2018-07-27T07:22:29.466Z,1000.55
2018-07-27T07:23:09.964Z,1000.55
2018-07-27T07:23:50.479Z,1000.53
2018-07-27T07:24:30.964Z,1000.53
2018-07-27T07:25:11.503Z,1000.55
2018-07-27T07:25:52.328Z,1000.52
2018-07-27T07:26:32.511Z,1000.54
2018-07-27T07:27:12.978Z,1000.53
2018-07-27T07:27:53.464Z,1000.52
2018-07-27T07:28:34.217Z,1000.53
2018-07-27T07:29:14.728Z,1000.54
2018-07-27T07:29:55.212Z,1000.54
2018-07-27T07:30:35.741Z,1000.55
2018-07-27T07:31:16.255Z,1000.54
2018-07-27T07:31:56.743Z,1000.54
2018-07-27T07:32:37.220Z,1000.52
2018-07-27T07:33:17.856Z,1000.5
2018-07-27T07:33:58.300Z,1000.53
2018-07-27T07:34:38.764Z,1000.5
2018-07-27T07:35:19.367Z,1000.58
2018-07-27T07:35:59.824Z,1000.52
2018-07-27T07:36:40.330Z,1000.53
2018-07-27T07:37:20.832Z,1000.56
2018-07-27T07:38:01.325Z,1000.59
2018-07-27T07:38:41.877Z,1000.57
2018-07-27T07:39:22.327Z,1000.55
2018-07-27T07:40:02.877Z,1000.57
2018-07-27T07:40:43.339Z,1000.61
2018-07-27T07:41:23.830Z,1000.55
2018-07-27T07:42:04.327Z,1000.61
2018-07-27T07:42:45.016Z,1000.56
2018-07-27T07:43:25.524Z,1000.53
2018-07-27T07:44:05.976Z,1000.55
2018-07-27T07:44:46.507Z,1000.55
2018-07-27T07:45:27.032Z,1000.5
2018-07-27T07:46:07.490Z,1000.55
2018-07-27T07:46:48.020Z,1000.45
2018-07-27T07:47:28.517Z,1000.5
2018-07-27T07:48:09.009Z,1000.49
2018-07-27T07:48:49.531Z,1000.48
2018-07-27T07:49:30.040Z,1000.48
2018-07-27T07:50:10.548Z,1000.48
2018-07-27T07:50:51.081Z,1000.47
2018-07-27T07:51:31.550Z,1000.45
2018-07-27T07:52:12.036Z,1000.45
2018-07-27T07:52:52.561Z,1000.43
2018-07-27T07:53:33.176Z,1000.44
2018-07-27T07:54:13.629Z,1000.44
2018-07-27T07:54:54.099Z,1000.46
2018-07-27T07:55:34.632Z,1000.45
2018-07-27T07:56:15.151Z,1000.5
2018-07-27T07:56:55.765Z,1000.47
2018-07-27T07:57:36.370Z,1000.48
2018-07-27T07:58:16.729Z,1000.46
2018-07-27T07:58:57.255Z,1000.5
2018-07-27T07:59:37.738Z,1000.51
2018-07-27T08:00:18.283Z,1000.45
2018-07-27T08:00:58.763Z,1000.43
2018-07-27T08:01:40.188Z,1000.43
2018-07-27T08:02:21.496Z,1000.46
2018-07-27T08:03:02.026Z,1000.44
2018-07-27T08:03:42.576Z,1000.45
2018-07-27T08:04:23.154Z,1000.46
2018-07-27T08:05:03.670Z,1000.44
2018-07-27T08:05:44.161Z,1000.44
2018-07-27T08:06:24.643Z,1000.46
2018-07-27T08:07:05.168Z,1000.42
2018-07-27T08:07:45.646Z,1000.39
2018-07-27T08:08:26.147Z,1000.4
2018-07-27T08:09:06.626Z,1000.41
2018-07-27T08:09:47.170Z,1000.4
2018-07-27T08:10:27.621Z,1000.37
2018-07-27T08:11:08.189Z,1000.38
2018-07-27T08:11:48.815Z,1000.34
2018-07-27T08:12:29.399Z,1000.35
2018-07-27T08:13:10.064Z,1000.36
2018-07-27T08:13:50.351Z,1000.37
2018-07-27T08:14:30.862Z,1000.34
2018-07-27T08:15:11.376Z,1000.29
2018-07-27T08:15:51.891Z,1000.31
2018-07-27T08:16:32.432Z,1000.3
2018-07-27T08:17:20.540Z,1000.32
2018-07-27T08:18:00.965Z,1000.3
2018-07-27T08:18:41.534Z,1000.32
2018-07-27T08:19:21.986Z,1000.31
2018-07-27T08:20:02.545Z,1000.32
2018-07-27T08:20:42.987Z,1000.33